Time;durP1;ratioP1;P1;durP2;ratioP2;P2;SDS_P1;SDS_P2;PMS_P1;PMS_P2;Temp;Humidity;BMP_temperature;BMP_pressure;BME280_temperature;BME280_humidity;BME280_pressure;Samples;Min_cycle;Max_cycle;Signal;HPM_P1;HPM_P2
2022/07/09 00:02:17;;;;;;;0.70;0.70;;;;;;;29.03;31.03;99893.43;1876410;75;28219;-49
2022/07/09 00:05:06;;;;;;;0.70;0.70;;;;;;;29.02;31.09;99888.14;1884190;75;28059;-46
2022/07/09 00:07:55;;;;;;;0.70;0.70;;;;;;;29.02;31.13;99896.44;1895830;75;28119;-45
2022/07/09 00:10:43;;;;;;;1.00;0.70;;;;;;;29.03;31.18;99906.42;1890714;75;28288;-57
2022/07/09 00:13:32;;;;;;;1.90;0.90;;;;;;;29.01;31.24;99905.86;1888808;75;28087;-44
2022/07/09 00:16:20;;;;;;;0.88;0.88;;;;;;;28.99;31.29;99911.64;1882500;75;28099;-44
2022/07/09 00:19:08;;;;;;;0.80;0.80;;;;;;;28.98;31.31;99911.91;1879932;75;28125;-44
2022/07/09 00:21:57;;;;;;;1.45;0.72;;;;;;;28.99;31.31;99910.80;1879299;75;28239;-45
2022/07/09 00:24:45;;;;;;;1.70;0.70;;;;;;;29.00;31.35;99912.48;1886403;75;28083;-45
2022/07/09 00:27:33;;;;;;;1.00;0.90;;;;;;;28.96;31.42;99909.42;1880132;75;28209;-43
2022/07/09 00:30:21;;;;;;;0.75;0.75;;;;;;;28.95;31.48;99916.05;1875173;75;28205;-46
2022/07/09 00:33:09;;;;;;;0.70;0.70;;;;;;;28.93;31.54;99918.80;1869682;75;28334;-45
2022/07/09 00:35:58;;;;;;;0.80;0.80;;;;;;;28.91;31.50;99914.92;1886048;75;28131;-45
2022/07/09 00:38:47;;;;;;;0.90;0.70;;;;;;;28.89;31.54;99912.13;1891025;75;28149;-46
2022/07/09 00:41:35;;;;;;;1.20;0.90;;;;;;;28.86;31.63;99917.64;1891036;75;28348;-43
2022/07/09 00:44:24;;;;;;;0.72;0.72;;;;;;;28.86;31.72;99909.89;1890414;75;28137;-44
2022/07/09 00:47:12;;;;;;;0.80;0.77;;;;;;;28.85;31.72;99917.89;1886845;75;28274;-44
2022/07/09 00:50:01;;;;;;;0.80;0.80;;;;;;;28.82;31.79;99917.06;1878728;75;28110;-45
2022/07/09 00:52:50;;;;;;;0.90;0.90;;;;;;;28.83;31.74;99912.64;1880020;74;28170;-44
2022/07/09 00:55:40;;;;;;;1.50;0.98;;;;;;;28.82;31.84;99912.91;1882224;75;28210;-43
2022/07/09 00:58:29;;;;;;;0.80;0.80;;;;;;;28.81;31.79;99914.00;1882878;75;28169;-45
2022/07/09 01:01:17;;;;;;;1.13;0.80;;;;;;;28.75;31.79;99907.62;1880214;75;28231;-45
2022/07/09 01:04:07;;;;;;;1.30;1.00;;;;;;;28.80;31.75;99903.48;1879899;75;28252;-47
2022/07/09 01:06:57;;;;;;;0.87;0.87;;;;;;;28.79;31.82;99907.91;1883599;75;28241;-44
2022/07/09 01:09:46;;;;;;;2.30;0.82;;;;;;;28.77;31.78;99908.18;1881999;75;28160;-44
2022/07/09 01:12:35;;;;;;;0.95;0.80;;;;;;;28.74;31.85;99905.94;1873452;75;28273;-45
2022/07/09 01:15:23;;;;;;;1.20;1.00;;;;;;;28.75;31.74;99903.47;1892472;75;28106;-44
2022/07/09 01:18:13;;;;;;;4.97;1.00;;;;;;;28.71;31.82;99898.16;1884624;75;28156;-44
2022/07/09 01:21:01;;;;;;;1.40;0.80;;;;;;;28.68;31.84;99896.76;1881338;75;28107;-44
2022/07/09 01:23:50;;;;;;;0.83;0.80;;;;;;;28.71;31.89;99908.68;1880210;75;28250;-45
2022/07/09 01:26:38;;;;;;;0.90;0.90;;;;;;;28.73;31.87;99902.33;1879920;75;28142;-46
2022/07/09 01:29:27;;;;;;;0.70;0.70;;;;;;;28.69;31.84;99901.20;1885937;75;28233;-44
2022/07/09 01:32:16;;;;;;;0.90;0.90;;;;;;;28.67;31.85;99902.56;1891657;75;28214;-44
2022/07/09 01:35:06;;;;;;;1.27;1.00;;;;;;;28.65;32.00;99907.53;1891158;75;28113;-45
2022/07/09 01:37:54;;;;;;;2.30;1.00;;;;;;;28.63;31.88;99906.42;1889401;75;28502;-44
2022/07/09 01:40:43;;;;;;;1.05;1.00;;;;;;;28.61;31.85;99900.30;1884124;75;28185;-44
2022/07/09 01:43:33;;;;;;;0.80;0.80;;;;;;;28.60;31.88;99908.33;1880020;75;28149;-45
2022/07/09 01:46:21;;;;;;;0.90;0.80;;;;;;;28.60;31.80;99897.81;1880091;75;28183;-44
2022/07/09 01:49:09;;;;;;;0.80;0.80;;;;;;;28.55;31.87;99904.10;1882625;75;28159;-43
2022/07/09 01:51:58;;;;;;;1.00;0.70;;;;;;;28.57;31.83;99905.21;1882970;75;28071;-43
2022/07/09 01:54:47;;;;;;;0.80;0.80;;;;;;;28.59;31.69;99908.03;1872682;75;28152;-46
2022/07/09 01:57:35;;;;;;;0.70;0.70;;;;;;;28.57;31.65;99906.05;1871082;75;28302;-45
2022/07/09 02:00:24;;;;;;;0.82;0.78;;;;;;;28.56;31.62;99907.70;1884638;75;28136;-45
2022/07/09 02:03:12;;;;;;;0.90;0.90;;;;;;;28.54;31.62;99902.42;1869355;76;28183;-47
2022/07/09 02:06:01;;;;;;;0.70;0.70;;;;;;;28.52;31.65;99904.63;1875326;75;28067;-45
2022/07/09 02:08:52;;;;;;;0.90;0.90;;;;;;;28.54;31.63;99903.80;1880047;75;28252;-46
2022/07/09 02:11:40;;;;;;;1.10;1.00;;;;;;;28.54;31.69;99903.80;1885316;75;28110;-46
2022/07/09 02:14:28;;;;;;;0.78;0.78;;;;;;;28.53;31.63;99905.46;1880075;75;28118;-45
2022/07/09 02:17:17;;;;;;;1.12;0.93;;;;;;;28.53;31.74;99905.46;1880008;75;28233;-44
2022/07/09 02:20:08;;;;;;;0.85;0.70;;;;;;;28.47;31.78;99903.19;1881996;75;28259;-46
2022/07/09 02:22:57;;;;;;;1.60;1.00;;;;;;;28.50;31.82;99907.36;1869610;76;28144;-45
2022/07/09 02:25:45;;;;;;;0.80;0.80;;;;;;;28.49;31.79;99902.95;1891131;75;28195;-45
2022/07/09 02:28:33;;;;;;;1.42;0.90;;;;;;;28.47;31.79;99899.05;1891205;75;28238;-45
2022/07/09 02:31:22;;;;;;;0.90;0.90;;;;;;;28.42;31.91;99900.41;1869634;76;28162;-44
2022/07/09 02:34:10;;;;;;;0.80;0.80;;;;;;;28.42;31.97;99895.42;1883359;75;28166;-45
2022/07/09 02:36:59;;;;;;;1.12;0.80;;;;;;;28.40;31.90;99886.00;1880185;75;28071;-44
2022/07/09 02:39:48;;;;;;;0.90;0.90;;;;;;;28.44;31.94;99898.22;1880053;75;28262;-45
2022/07/09 02:42:38;;;;;;;0.90;0.90;;;;;;;28.42;32.01;99893.50;1883404;75;30156;-45
2022/07/09 02:45:26;;;;;;;0.90;0.88;;;;;;;28.41;32.01;99896.51;1869460;76;28222;-43
2022/07/09 02:48:15;;;;;;;0.93;0.93;;;;;;;28.43;31.89;99900.68;1889766;75;28124;-45
2022/07/09 02:51:04;;;;;;;0.68;0.68;;;;;;;28.41;31.86;99898.73;1900600;75;28137;-44
2022/07/09 02:53:53;;;;;;;0.80;0.80;;;;;;;28.43;31.92;99902.06;1886289;75;28063;-46
2022/07/09 02:56:40;;;;;;;0.90;0.90;;;;;;;28.46;31.88;99906.23;1880519;75;28055;-45
2022/07/09 02:59:29;;;;;;;0.95;0.80;;;;;;;28.46;31.93;99904.84;1880213;75;28143;-48
2022/07/09 03:02:17;;;;;;;0.78;0.78;;;;;;;28.46;31.98;99909.83;1880767;75;28326;-45
2022/07/09 03:05:07;;;;;;;0.75;0.75;;;;;;;28.44;31.96;99908.43;1884543;75;28120;-47
2022/07/09 03:07:56;;;;;;;0.80;0.80;;;;;;;28.42;31.97;99909.25;1879977;75;28117;-43
2022/07/09 03:10:44;;;;;;;0.80;0.80;;;;;;;28.42;31.91;99908.70;1848618;75;28148;-44
2022/07/09 03:13:36;;;;;;;1.70;0.88;;;;;;;28.43;31.81;99910.35;1857846;76;28083;-43
2022/07/09 03:16:25;;;;;;;0.80;0.80;;;;;;;28.41;31.70;99912.55;1853444;76;28063;-44
2022/07/09 03:19:13;;;;;;;0.80;0.80;;;;;;;28.38;31.69;99906.16;1850249;76;28063;-44
2022/07/09 03:22:02;;;;;;;0.80;0.80;;;;;;;28.37;31.80;99916.10;1847605;76;28078;-47
2022/07/09 03:24:51;;;;;;;0.72;0.72;;;;;;;28.37;31.74;99914.72;1857286;76;27984;-47
2022/07/09 03:27:40;;;;;;;1.30;0.90;;;;;;;28.35;31.64;99914.16;1859032;76;28169;-45
2022/07/09 03:30:28;;;;;;;0.70;0.70;;;;;;;28.33;31.65;99919.11;1859832;76;28165;-44
2022/07/09 03:33:17;;;;;;;0.70;0.70;;;;;;;28.32;31.54;99913.29;1860539;76;28072;-46
2022/07/09 03:36:05;;;;;;;0.82;0.72;;;;;;;28.32;31.45;99915.52;1857211;76;28040;-43
2022/07/09 03:38:54;;;;;;;0.70;0.70;;;;;;;28.35;31.50;99912.77;1851405;76;28105;-45
2022/07/09 03:41:42;;;;;;;0.80;0.80;;;;;;;28.32;31.42;99916.89;1849833;76;28068;-44
2022/07/09 03:44:31;;;;;;;1.30;0.98;;;;;;;28.31;31.44;99911.06;1849595;76;28183;-45
2022/07/09 03:47:19;;;;;;;0.70;0.70;;;;;;;28.31;31.47;99922.12;1855224;76;28075;-45
2022/07/09 03:50:08;;;;;;;1.10;0.60;;;;;;;28.32;31.42;99916.89;1850211;76;28050;-46
2022/07/09 03:52:57;;;;;;;1.60;0.90;;;;;;;28.32;31.29;99916.89;1845605;76;28108;-46
2022/07/09 03:55:46;;;;;;;0.80;0.80;;;;;;;28.31;31.47;99919.93;1839775;77;28177;-46
2022/07/09 03:58:35;;;;;;;1.00;0.80;;;;;;;28.33;31.37;99918.58;1854439;76;28562;-45
2022/07/09 04:01:24;;;;;;;0.80;0.80;;;;;;;28.34;31.35;99917.45;1849776;76;28053;-46
2022/07/09 04:04:13;;;;;;;0.70;0.70;;;;;;;28.33;31.31;99917.19;1849738;76;28181;-45
2022/07/09 04:07:01;;;;;;;1.10;0.70;;;;;;;28.30;31.42;99917.70;1851990;76;28215;-45
2022/07/09 04:09:50;;;;;;;0.90;0.90;;;;;;;28.30;31.49;99923.23;1856337;75;28077;-45
2022/07/09 04:12:38;;;;;;;3.53;1.07;;;;;;;28.28;31.48;99928.19;1880092;75;28137;-46
2022/07/09 04:15:27;;;;;;;0.93;0.93;;;;;;;28.31;31.54;99930.98;1900841;75;28124;-44
2022/07/09 04:18:16;;;;;;;0.77;0.77;;;;;;;28.26;31.47;99936.45;1886337;75;28622;-44
2022/07/09 04:21:05;;;;;;;0.80;0.80;;;;;;;28.19;31.33;99940.81;1877859;75;28066;-46
2022/07/09 04:23:53;;;;;;;1.10;0.98;;;;;;;28.16;31.36;99947.39;1879625;75;28135;-42
2022/07/09 04:26:42;;;;;;;1.47;1.37;;;;;;;28.11;31.22;99946.79;1881725;73;28109;-42
2022/07/09 04:29:30;;;;;;;1.30;1.20;;;;;;;28.02;31.36;99947.81;1873564;75;28293;-43
2022/07/09 04:32:18;;;;;;;1.87;1.77;;;;;;;27.97;31.46;99948.27;1873606;75;28218;-43
2022/07/09 04:35:08;;;;;;;1.80;1.70;;;;;;;27.90;31.64;99951.77;1879031;75;28187;-43
2022/07/09 04:37:56;;;;;;;1.72;1.62;;;;;;;27.86;31.75;99953.39;1875284;75;28214;-45
2022/07/09 04:40:44;;;;;;;3.02;2.40;;;;;;;27.83;31.82;99951.98;1875295;75;28286;-46
2022/07/09 04:43:33;;;;;;;2.50;2.10;;;;;;;27.86;31.86;99955.61;1890866;75;28235;-43
2022/07/09 04:46:23;;;;;;;3.10;2.80;;;;;;;27.86;31.94;99958.91;1884908;75;28132;-43
2022/07/09 04:49:11;;;;;;;5.08;2.95;;;;;;;27.82;31.89;99955.81;1888682;75;28290;-41
2022/07/09 04:52:00;;;;;;;3.27;2.72;;;;;;;27.79;31.67;99961.88;1883370;75;28245;-47
2022/07/09 04:54:48;;;;;;;2.27;2.07;;;;;;;27.79;31.66;99953.59;1899446;75;28320;-42
2022/07/09 04:57:37;;;;;;;2.20;2.00;;;;;;;27.80;31.65;99955.24;1877295;75;28303;-40
2022/07/09 05:00:25;;;;;;;2.20;1.70;;;;;;;27.76;31.75;99953.26;1881281;75;28191;-43
2022/07/09 05:03:14;;;;;;;1.82;1.72;;;;;;;27.67;32.00;99957.56;1877549;75;28188;-41
2022/07/09 05:06:02;;;;;;;6.72;4.83;;;;;;;27.55;32.35;99955.47;1884201;75;28305;-41
2022/07/09 05:08:50;;;;;;;2.05;1.87;;;;;;;27.52;32.67;99958.73;1892076;75;28177;-44
2022/07/09 05:11:39;;;;;;;1.60;1.50;;;;;;;27.54;32.54;99955.20;1870038;75;28138;-44
2022/07/09 05:14:27;;;;;;;1.53;1.43;;;;;;;27.55;32.35;99952.72;1827024;77;28175;-44
2022/07/09 05:17:16;;;;;;;1.12;1.12;;;;;;;27.54;32.50;99953.25;1826546;77;28225;-42
2022/07/09 05:20:06;;;;;;;1.43;1.37;;;;;;;27.54;32.23;99954.63;1811037;77;28259;-45
2022/07/09 05:22:55;;;;;;;1.30;1.20;;;;;;;27.51;32.17;99950.19;1807584;78;28357;-42
2022/07/09 05:25:44;;;;;;;1.15;1.15;;;;;;;27.52;31.88;99947.70;1856224;76;28120;-42
2022/07/09 05:28:33;;;;;;;1.50;1.20;;;;;;;27.50;31.86;99947.13;1847825;76;28107;-42
2022/07/09 05:31:21;;;;;;;1.10;1.10;;;;;;;27.51;31.91;99947.42;1839666;76;28199;-42
2022/07/09 05:34:09;;;;;;;1.37;1.20;;;;;;;27.49;32.00;99952.38;1863475;76;28081;-42
2022/07/09 05:36:58;;;;;;;1.30;1.20;;;;;;;27.42;32.12;99944.83;1863019;76;28239;-45
2022/07/09 05:39:46;;;;;;;1.25;1.20;;;;;;;27.45;31.98;99950.65;1844366;76;28672;-43
2022/07/09 05:42:35;;;;;;;2.70;1.10;;;;;;;27.39;31.98;99953.91;1809492;77;28318;-45
2022/07/09 05:45:23;;;;;;;1.10;1.10;;;;;;;27.42;31.94;99954.48;1814656;78;28402;-45
2022/07/09 05:48:12;;;;;;;2.33;1.10;;;;;;;27.43;31.78;99952.84;1850392;76;28109;-45
2022/07/09 05:51:00;;;;;;;2.83;1.77;;;;;;;27.45;31.81;99952.56;1849985;76;28184;-44
2022/07/09 05:53:49;;;;;;;1.10;1.10;;;;;;;27.41;31.90;99945.36;1844167;76;28127;-43
2022/07/09 05:56:38;;;;;;;1.20;1.10;;;;;;;27.36;32.01;99946.63;1861303;76;28067;-43
2022/07/09 05:59:27;;;;;;;1.47;1.20;;;;;;;27.39;32.02;99945.63;1862055;76;28274;-44
2022/07/09 06:02:16;;;;;;;1.40;1.30;;;;;;;27.42;32.08;99947.58;1871141;74;28257;-43
2022/07/09 06:05:05;;;;;;;1.25;1.25;;;;;;;27.34;32.15;99943.30;1848946;74;28201;-54
2022/07/09 06:07:53;;;;;;;1.27;1.27;;;;;;;27.31;32.24;99950.70;1820555;77;28323;-45
2022/07/09 06:10:42;;;;;;;1.32;1.30;;;;;;;27.30;32.32;99947.67;1828209;77;28234;-43
2022/07/09 06:13:31;;;;;;;1.40;1.30;;;;;;;27.26;32.39;99950.63;1805411;77;28339;-43
2022/07/09 06:16:19;;;;;;;1.27;1.17;;;;;;;27.27;32.47;99951.77;1809079;78;28341;-42
2022/07/09 06:19:08;;;;;;;1.12;1.12;;;;;;;27.25;32.57;99947.05;1814233;78;28254;-45
2022/07/09 06:21:56;;;;;;;1.27;1.17;;;;;;;27.31;32.32;99958.44;1805446;78;28390;-45
2022/07/09 06:24:44;;;;;;;1.10;1.00;;;;;;;27.18;32.31;99957.97;1845730;76;28207;-48
2022/07/09 06:27:32;;;;;;;1.13;1.13;;;;;;;27.14;32.40;99954.06;1860065;76;28104;-43
2022/07/09 06:30:20;;;;;;;2.50;1.20;;;;;;;27.12;32.25;99955.67;1849828;76;28058;-44
2022/07/09 06:33:09;;;;;;;1.70;1.10;;;;;;;27.13;32.47;99957.89;1849787;76;28161;-44
2022/07/09 06:35:57;;;;;;;1.30;1.30;;;;;;;27.13;32.61;99955.97;1846203;76;28368;-43
2022/07/09 06:41:52;;;;;;;1.95;1.02;;;;;;;27.17;32.89;99962.65;1857034;76;28274;-45
2022/07/09 06:44:41;;;;;;;2.27;1.00;;;;;;;27.23;33.17;99963.03;1864402;76;28198;-43
2022/07/09 06:47:29;;;;;;;1.00;1.00;;;;;;;27.27;33.07;99960.05;1839256;76;28673;-43
2022/07/09 06:50:18;;;;;;;1.10;1.10;;;;;;;27.34;33.12;99955.18;1869766;76;28187;-46
2022/07/09 06:53:06;;;;;;;0.97;0.97;;;;;;;27.38;33.00;99950.00;1856191;76;28093;-42
2022/07/09 06:55:55;;;;;;;1.00;1.00;;;;;;;27.49;32.77;99955.97;1849604;76;31140;-43
2022/07/09 06:58:43;;;;;;;1.07;1.00;;;;;;;27.54;32.60;99946.92;1854283;76;28116;-43
2022/07/09 07:01:31;;;;;;;1.00;1.00;;;;;;;27.56;32.56;99944.73;1843124;76;38519;-47
2022/07/09 07:04:20;;;;;;;1.00;1.00;;;;;;;27.56;32.53;99938.67;1859925;76;28163;-54
2022/07/09 07:07:08;;;;;;;0.93;0.93;;;;;;;27.61;32.65;99934.58;1859385;76;28040;-44
2022/07/09 07:09:56;;;;;;;2.25;1.02;;;;;;;27.68;32.68;99939.92;1854409;76;28104;-45
2022/07/09 07:12:44;;;;;;;1.27;1.05;;;;;;;27.74;32.62;99930.60;1861446;76;28307;-45
2022/07/09 07:15:32;;;;;;;1.35;1.25;;;;;;;27.75;32.56;99923.43;1860503;76;28140;-44
2022/07/09 07:18:21;;;;;;;1.00;1.00;;;;;;;27.83;32.48;99924.36;1840454;76;28305;-43
2022/07/09 07:21:09;;;;;;;1.10;1.10;;;;;;;27.84;32.50;99923.83;1853195;76;28179;-43
2022/07/09 07:23:57;;;;;;;1.50;1.10;;;;;;;27.87;32.48;99922.75;1850151;76;28027;-44
2022/07/09 07:26:45;;;;;;;1.00;1.00;;;;;;;27.91;32.44;99921.12;1850180;76;28103;-43
2022/07/09 07:29:34;;;;;;;1.00;1.00;;;;;;;27.93;32.44;99919.50;1852914;76;28248;-45
2022/07/09 07:32:23;;;;;;;2.07;1.17;;;;;;;27.96;32.41;99926.71;1851292;76;28155;-44
2022/07/09 07:35:11;;;;;;;1.15;1.00;;;;;;;28.02;32.36;99924.87;1865250;76;28117;-44
2022/07/09 07:38:02;;;;;;;0.90;0.90;;;;;;;27.99;32.36;99917.95;1860641;76;28161;-45
2022/07/09 07:40:50;;;;;;;1.02;1.00;;;;;;;28.04;32.28;99917.16;1839888;77;28097;-47
2022/07/09 07:43:39;;;;;;;0.95;0.93;;;;;;;28.02;32.28;99916.05;1850389;76;28025;-48
2022/07/09 07:46:28;;;;;;;2.15;1.10;;;;;;;28.06;32.26;99916.35;1849894;76;28053;-47
2022/07/09 07:49:17;;;;;;;1.10;0.90;;;;;;;28.09;32.20;99915.84;1850255;76;28227;-47
2022/07/09 07:52:07;;;;;;;0.90;0.90;;;;;;;28.10;32.20;99912.54;1839770;77;28126;-45
2022/07/09 07:54:55;;;;;;;1.30;1.00;;;;;;;28.14;32.14;99909.53;1850082;76;28013;-46
2022/07/09 07:57:44;;;;;;;0.70;0.70;;;;;;;28.17;32.14;99908.44;1850025;76;28122;-47
2022/07/09 08:00:32;;;;;;;1.10;1.10;;;;;;;28.19;32.09;99899.38;1851504;76;28173;-45
2022/07/09 08:03:21;;;;;;;1.32;0.95;;;;;;;28.23;32.03;99894.14;1854179;76;28637;-45
2022/07/09 08:06:09;;;;;;;0.90;0.90;;;;;;;28.25;32.00;99891.41;1849915;76;28056;-48
2022/07/09 08:08:58;;;;;;;1.20;0.90;;;;;;;28.28;31.99;99892.81;1849970;76;28078;-48
2022/07/09 08:11:46;;;;;;;0.90;0.90;;;;;;;28.28;31.99;99892.27;1852387;76;28140;-45
2022/07/09 08:14:34;;;;;;;2.60;1.07;;;;;;;28.33;31.96;99894.25;1852404;75;28108;-45
2022/07/09 08:17:23;;;;;;;1.00;1.00;;;;;;;28.32;31.95;99885.12;1849872;76;28091;-49
2022/07/09 08:20:12;;;;;;;0.90;0.90;;;;;;;28.32;31.97;99887.88;1849858;76;28097;-47
2022/07/09 08:23:00;;;;;;;1.10;1.10;;;;;;;28.31;31.99;99884.81;1854430;76;28211;-46
2022/07/09 08:25:49;;;;;;;0.88;0.88;;;;;;;28.37;31.94;99882.41;1850626;76;32088;-45
2022/07/09 08:28:38;;;;;;;1.00;1.00;;;;;;;28.35;31.92;99884.60;1850332;76;28029;-46
2022/07/09 08:31:26;;;;;;;0.90;0.90;;;;;;;28.35;31.94;99887.36;1851126;76;28158;-44
2022/07/09 08:34:14;;;;;;;1.10;1.10;;;;;;;28.36;31.96;99882.64;1854409;76;28144;-46
2022/07/09 08:37:02;;;;;;;0.90;0.90;;;;;;;28.36;31.93;99877.95;1849999;76;28095;-45
2022/07/09 08:39:51;;;;;;;0.90;0.90;;;;;;;28.35;31.97;99873.55;1868522;76;29123;-45
2022/07/09 08:42:39;;;;;;;1.20;1.00;;;;;;;28.40;31.97;99868.61;1857767;76;28157;-45
2022/07/09 08:45:29;;;;;;;0.90;0.90;;;;;;;28.43;31.95;99864.75;1852521;76;28010;-44
2022/07/09 08:48:18;;;;;;;0.90;0.90;;;;;;;28.41;31.97;99865.57;1850269;76;28102;-44
2022/07/09 08:51:07;;;;;;;1.00;1.00;;;;;;;28.44;31.92;99862.28;1850205;76;28154;-44
2022/07/09 08:53:56;;;;;;;0.93;0.93;;;;;;;28.43;31.97;99854.23;1854069;76;28251;-43
2022/07/09 08:56:44;;;;;;;1.00;1.00;;;;;;;28.42;31.97;99849.29;1851316;76;28083;-48
2022/07/09 08:59:35;;;;;;;2.92;0.90;;;;;;;28.43;31.99;99859.77;1850104;76;28150;-44
2022/07/09 09:02:23;;;;;;;0.90;0.90;;;;;;;28.47;31.91;99854.02;1849967;76;28221;-45
2022/07/09 09:05:14;;;;;;;1.22;1.00;;;;;;;28.43;31.98;99855.08;1854987;76;28610;-48
2022/07/09 09:08:05;;;;;;;1.55;1.00;;;;;;;28.39;32.04;99852.57;1850994;76;28007;-48
2022/07/09 09:10:54;;;;;;;0.93;0.93;;;;;;;28.40;32.04;99855.60;1850288;76;28042;-45
2022/07/09 09:13:47;;;;;;;0.80;0.80;;;;;;;28.39;32.08;99849.81;1850078;76;28160;-46
2022/07/09 09:16:39;;;;;;;1.00;0.80;;;;;;;28.40;32.09;99841.78;1853633;76;28109;-43
2022/07/09 09:19:29;;;;;;;0.88;0.88;;;;;;;28.37;32.13;99835.42;1852254;76;28044;-44
2022/07/09 09:22:19;;;;;;;1.17;0.90;;;;;;;28.35;32.14;99834.02;1863841;76;28066;-46
2022/07/09 09:25:09;;;;;;;0.83;0.80;;;;;;;28.38;32.12;99830.73;1861006;76;28084;-44
2022/07/09 09:27:59;;;;;;;0.90;0.90;;;;;;;28.39;32.11;99829.08;1856838;76;28074;-47
2022/07/09 09:30:47;;;;;;;0.82;0.82;;;;;;;28.44;32.04;99834.66;1839882;76;28125;-48
2022/07/09 09:33:36;;;;;;;0.90;0.90;;;;;;;28.44;32.09;99833.81;1860793;76;28122;-47
2022/07/09 09:36:35;;;;;;;0.98;0.98;;;;;;;28.45;32.10;99824.44;1860710;76;28544;-46
2022/07/09 09:39:24;;;;;;;0.80;0.80;;;;;;;28.47;32.02;99825.81;1854076;76;28110;-44
2022/07/09 09:42:14;;;;;;;0.80;0.80;;;;;;;28.46;32.05;99824.16;1852268;75;28061;-44
2022/07/09 09:45:03;;;;;;;0.80;0.80;;;;;;;28.48;32.04;99820.58;1864224;76;28045;-43
2022/07/09 09:47:52;;;;;;;0.70;0.70;;;;;;;28.49;31.97;99809.82;1860955;76;28167;-44
2022/07/09 09:50:41;;;;;;;1.15;1.05;;;;;;;28.51;31.96;99800.70;1856312;76;28044;-47
2022/07/09 09:53:31;;;;;;;1.20;1.00;;;;;;;28.50;32.02;99803.72;1851015;76;28032;-45
2022/07/09 09:56:20;;;;;;;0.95;0.95;;;;;;;28.51;32.03;99798.48;1850311;76;28528;-45
2022/07/09 09:59:08;;;;;;;0.72;0.72;;;;;;;28.46;32.12;99789.61;1849985;76;28126;-47
2022/07/09 10:01:57;;;;;;;0.90;0.90;;;;;;;28.50;32.04;99792.12;1854960;76;28111;-47
2022/07/09 10:04:46;;;;;;;0.98;0.90;;;;;;;28.50;32.04;99786.59;1850287;76;28136;-47
2022/07/09 10:07:34;;;;;;;0.80;0.80;;;;;;;28.46;32.14;99784.62;1849931;76;28069;-44
2022/07/09 10:10:24;;;;;;;1.00;1.00;;;;;;;28.48;32.15;99776.91;1850694;76;28082;-46
2022/07/09 10:13:22;;;;;;;0.90;0.90;;;;;;;28.50;32.12;99782.45;1856440;76;28093;-45
2022/07/09 10:16:11;;;;;;;0.88;0.88;;;;;;;28.49;32.15;99777.20;1851098;76;28040;-44
2022/07/09 10:18:59;;;;;;;0.90;0.90;;;;;;;28.46;32.20;99773.58;1865341;76;28207;-45
2022/07/09 10:21:50;;;;;;;1.30;1.20;;;;;;;28.47;32.17;99766.39;1861071;76;28105;-48
2022/07/09 10:24:49;;;;;;;0.80;0.80;;;;;;;28.51;32.14;99776.38;1853694;76;28136;-46
2022/07/09 10:27:48;;;;;;;0.80;0.80;;;;;;;28.50;32.22;99763.64;1852418;76;28001;-49
2022/07/09 10:30:37;;;;;;;0.90;0.90;;;;;;;28.52;32.17;99762.85;1849878;76;28016;-46
2022/07/09 10:33:31;;;;;;;0.90;0.90;;;;;;;28.52;32.21;99760.89;1867195;76;28049;-44
2022/07/09 10:36:21;;;;;;;0.90;0.90;;;;;;;28.57;32.17;99755.41;1860019;76;28055;-45
2022/07/09 10:39:15;;;;;;;1.42;0.85;;;;;;;28.56;32.19;99757.91;1854634;76;28099;-48
2022/07/09 10:42:06;;;;;;;0.90;0.90;;;;;;;28.58;32.16;99746.56;1850550;76;28368;-47
2022/07/09 10:44:55;;;;;;;0.80;0.80;;;;;;;28.57;32.19;99742.13;1850131;76;28069;-45
2022/07/09 10:47:44;;;;;;;0.80;0.80;;;;;;;28.60;32.15;99741.63;1849848;76;28074;-48
2022/07/09 10:50:35;;;;;;;0.90;0.90;;;;;;;28.61;32.15;99735.83;1839747;77;28156;-45
2022/07/09 10:53:26;;;;;;;0.80;0.80;;;;;;;28.62;32.12;99731.97;1849989;75;28130;-45
2022/07/09 10:56:19;;;;;;;0.90;0.90;;;;;;;28.56;32.23;99728.88;1850043;76;28120;-44
2022/07/09 10:59:08;;;;;;;0.75;0.75;;;;;;;28.57;32.22;99726.37;1848173;76;28319;-44
2022/07/09 11:01:56;;;;;;;0.70;0.70;;;;;;;28.58;32.28;99724.45;1839677;77;28207;-47
2022/07/09 11:04:49;;;;;;;0.70;0.70;;;;;;;28.58;32.28;99719.77;1839518;77;28151;-43
2022/07/09 11:07:37;;;;;;;0.95;0.95;;;;;;;28.57;32.31;99711.72;1866878;76;28156;-44
2022/07/09 11:10:29;;;;;;;0.90;0.90;;;;;;;28.60;32.28;99701.55;1850176;76;28122;-43
2022/07/09 11:13:17;;;;;;;0.90;0.90;;;;;;;28.55;32.52;99689.89;1858566;76;28070;-44
2022/07/09 11:16:06;;;;;;;0.82;0.82;;;;;;;28.55;32.52;99689.89;1850832;75;38418;-43
2022/07/09 11:18:57;;;;;;;1.00;1.00;;;;;;;28.56;32.41;99683.27;1850099;76;28531;-44
2022/07/09 11:21:46;;;;;;;0.87;0.87;;;;;;;28.57;32.40;99681.31;1850045;76;28112;-47
2022/07/09 11:24:35;;;;;;;0.93;0.93;;;;;;;28.57;32.42;99684.08;1839589;77;28111;-44
2022/07/09 11:27:23;;;;;;;0.90;0.90;;;;;;;28.63;32.35;99676.14;1860714;76;28234;-44
2022/07/09 11:30:16;;;;;;;0.90;0.90;;;;;;;28.64;32.32;99678.63;1860582;76;28083;-44
2022/07/09 11:33:05;;;;;;;1.07;0.90;;;;;;;28.62;32.39;99673.92;1859932;76;28097;-43
2022/07/09 11:35:53;;;;;;;0.90;0.90;;;;;;;28.59;32.45;99662.59;1856035;76;28101;-43
2022/07/09 11:38:52;;;;;;;0.80;0.80;;;;;;;28.59;32.51;99663.39;1869743;76;28004;-44
2022/07/09 11:41:43;;;;;;;1.90;0.90;;;;;;;28.59;32.58;99655.68;1850035;76;28077;-46
2022/07/09 11:44:33;;;;;;;0.90;0.90;;;;;;;28.59;32.58;99655.68;1870374;76;28033;-43
2022/07/09 11:47:31;;;;;;;1.63;1.00;;;;;;;28.60;32.61;99648.48;1856151;76;28156;-44
2022/07/09 11:50:20;;;;;;;1.12;1.00;;;;;;;28.67;32.52;99651.83;1852462;76;28080;-43
2022/07/09 11:53:10;;;;;;;0.90;0.90;;;;;;;28.68;32.57;99652.09;1849999;76;28044;-43
2022/07/09 11:56:00;;;;;;;1.10;0.90;;;;;;;28.66;32.64;99646.55;1850149;76;28187;-45
2022/07/09 11:58:53;;;;;;;0.90;0.90;;;;;;;28.64;32.65;99637.16;1852855;76;28214;-45
2022/07/09 12:01:42;;;;;;;0.90;0.90;;;;;;;28.64;32.64;99635.78;1839588;77;28203;-44
2022/07/09 12:04:31;;;;;;;0.90;0.90;;;;;;;28.61;32.76;99633.55;1860652;76;28144;-44
2022/07/09 12:07:20;;;;;;;0.90;0.90;;;;;;;28.62;32.79;99615.03;1841450;76;28093;-47
2022/07/09 12:10:11;;;;;;;1.00;1.00;;;;;;;28.62;32.81;99613.11;1853684;76;28074;-44
2022/07/09 12:13:01;;;;;;;1.00;1.00;;;;;;;28.63;32.84;99621.70;1852165;76;28109;-46
2022/07/09 12:15:50;;;;;;;1.10;1.10;;;;;;;28.63;32.90;99608.42;1849920;76;28030;-44
2022/07/09 12:18:38;;;;;;;0.80;0.80;;;;;;;28.66;32.88;99618.91;1869279;76;28155;-44
2022/07/09 12:21:26;;;;;;;1.00;1.00;;;;;;;28.68;32.90;99620.87;1839891;77;28054;-45
2022/07/09 12:24:14;;;;;;;0.97;0.97;;;;;;;28.65;32.94;99618.64;1851026;76;28063;-44
2022/07/09 12:27:04;;;;;;;1.00;1.00;;;;;;;28.65;32.93;99604.83;1850182;74;28107;-45
2022/07/09 12:29:52;;;;;;;1.00;1.00;;;;;;;28.67;32.95;99608.14;1870903;76;28046;-44
2022/07/09 12:32:41;;;;;;;0.90;0.90;;;;;;;28.67;32.97;99595.16;1854832;76;28109;-44
2022/07/09 12:35:30;;;;;;;0.90;0.90;;;;;;;28.66;33.01;99611.45;1849570;76;28110;-44
2022/07/09 12:38:18;;;;;;;1.00;1.00;;;;;;;28.73;33.00;99629.16;1849574;76;28157;-46
2022/07/09 12:41:06;;;;;;;0.93;0.93;;;;;;;28.73;32.98;99610.64;1852524;76;28241;-44
2022/07/09 12:43:54;;;;;;;1.07;1.07;;;;;;;28.75;32.92;99598.76;1852849;76;28065;-45
2022/07/09 12:46:43;;;;;;;0.90;0.90;;;;;;;28.74;32.96;99608.17;1849696;76;28043;-46
2022/07/09 12:49:31;;;;;;;0.90;0.90;;;;;;;28.73;32.99;99595.98;1849925;76;28145;-44
2022/07/09 12:52:20;;;;;;;0.90;0.90;;;;;;;28.71;33.00;99587.97;1853673;76;28109;-44
2022/07/09 12:55:09;;;;;;;1.00;1.00;;;;;;;28.71;33.05;99581.06;1839631;77;28124;-45
2022/07/09 12:57:58;;;;;;;1.85;1.00;;;;;;;28.73;33.08;99583.55;1860754;76;28121;-43
2022/07/09 13:00:46;;;;;;;1.00;1.00;;;;;;;28.71;33.09;99585.75;1860756;76;28065;-46
2022/07/09 13:03:34;;;;;;;0.93;0.93;;;;;;;28.73;33.10;99575.25;1855183;76;28047;-45
2022/07/09 13:06:32;;;;;;;0.90;0.90;;;;;;;28.72;33.11;99576.38;1849733;76;28097;-44
2022/07/09 13:09:21;;;;;;;1.60;0.80;;;;;;;28.73;33.17;99577.47;1865029;76;28156;-46
2022/07/09 13:12:09;;;;;;;0.88;0.88;;;;;;;28.74;33.17;99575.54;1860712;76;28057;-45
2022/07/09 13:14:58;;;;;;;1.40;0.90;;;;;;;28.72;33.19;99584.66;1854990;76;28055;-47
2022/07/09 13:17:46;;;;;;;1.00;1.00;;;;;;;28.72;33.20;99587.43;1843104;76;31334;-45
2022/07/09 13:20:34;;;;;;;0.90;0.90;;;;;;;28.77;33.18;99576.39;1854942;75;28317;-45